Airfield :
LOGIN :

Register | Disclaimer

   EN    FR    IT 

 










Legend :    VFR   Marginal VFR   IFR   Intensive IFR   Very Intensive IFR
Visi :
Ceiling :
>= 8 km
>= 3000ft
5 to 8 km
1000 to 3000 ft
1500m to 5 km
500 to 1000 ft
800 to 1500m
200 to 500 ft
< 800m
< 200 ft
Symbols :   Thunderstorms  Fog  Heavy snow  Heavy precipitations  Wind > 20 kt
SIGMETs :     Misc.  Thunderstorms  Icing  Turbulence  Mountain Waves  Volcanic Ashes






- Airport Elevation : 288 ft
- IATA code : BZZ


EGVN - RAF Brize Norton

CURRENT METAR :
  • 011350Z 34006KT 9999 SCT025 BKN050 18/12 Q1012 NOSIG RMK BLACKBLU BLU

EXPIRED METARs :
  • 011320Z 35006KT 9999 BKN023 SCT038 18/13 Q1011 BECMG SCT025 RMK BLACKWHT BECMG BLU
  • 011250Z 32004KT 9999 BKN023 SCT060 17/13 Q1011 BECMG SCT025
  • 011220Z 36004KT 9999 BKN018 BKN025 17/14 Q1011 BECMG BKN025
  • 011150Z 01007KT 9999 BKN014 BKN022 17/13 Q1011 BECMG BKN022
  • 011120Z 36007KT 9999 BKN012 OVC022 16/14 Q1011 BECMG BKN022 RMK BLACKGRN BECMG WHT

TAF TAF EGVN
Valid from the 01 at 12:00 until the 02 at 12:00 UTC


011030Z 0112/0212 36005KT 9999 BKN042
PROB30
TEMPO 0112/0114 7000 SHRA BKN014
PROB30
TEMPO 0204/0209 SCT020



MET'MAP, your aeronautical weather chart ! - Copyright ORBIFLY December 2007 - Disclaimer

ORBIFLY MET'MAP TEAM :

Programming & Development : Alexandra Zaïnal
Concept & original design : Baudouin d'Aumeries
Assistance for programming : Marc-Olivier Méhu
Technical & hardware support : Manuel Goepfert

Contact : metmap@orbifly.com




SOURCES & CREDITS :

   NOAA